高雄終端管制區 - 高雄雷達席

METAR RCKH 210030Z VRB02KT 7000 FEW012 BKN070 BKN100 21/15 Q1015 NOSIG RMK A3000=

站台狀態:Online
最後更新:2021-01-21 08:30:02